CDT,Max TemperatureF,Mean TemperatureF,Min TemperatureF,Max Dew PointF,MeanDew PointF,Min DewpointF,Max Humidity, Mean Humidity, Min Humidity, Max Sea Level PressureIn, Mean Sea Level PressureIn, Min Sea Level PressureIn, Max VisibilityMiles, Mean VisibilityMiles, Min VisibilityMiles, Max Wind SpeedMPH, Mean Wind SpeedMPH, Max Gust SpeedMPH,PrecipitationIn, CloudCover, Events, WindDirDegrees
2012-9-1,93,74,71,75,73,70,99,97,94,30.08,30.03,29.96,10,8,2,9,3,,0.00,3,,117
2012-9-2,93,76,71,76,73,71,99,92,77,29.97,29.91,29.86,10,8,1,16,8,22,0.00,5,,85
2012-9-3,93,76,66,75,71,66,99,85,57,29.92,29.89,29.85,10,9,2,10,6,,0.00,1,,53
2012-9-4,93,76,66,74,70,66,99,86,57,29.92,29.88,29.85,10,8,1,9,2,17,0.00,2,,3
2012-9-5,93,72,64,69,66,64,99,86,67,29.94,29.84,29.79,10,9,5,17,5,24,0.00,1,,182
2012-9-6,93,71,59,70,63,58,99,77,43,29.93,29.90,29.84,10,9,2,12,4,16,0.00,1,,309
2012-9-7,93,68,56,69,62,56,99,91,55,29.94,29.84,29.72,10,9,2,15,2,21,0.00,3,,242
2012-9-8,93,63,54,58,53,46,99,74,43,29.88,29.84,29.77,10,10,7,18,7,25,0.00,4,,308
2012-9-9,93,60,48,58,54,48,99,82,49,30.14,30.00,29.85,10,9,0,17,6,23,0.00,4,,354
2012-9-10,93,58,42,54,47,42,99,70,32,30.24,30.17,30.12,10,8,0,7,2,,0.00,0,,146
2012-9-11,93,66,49,55,51,48,97,65,30,30.20,30.16,30.11,10,10,10,16,6,23,0.00,0,,188
2012-9-12,93,68,50,57,54,49,97,62,29,30.21,30.17,30.13,10,10,10,14,7,22,0.00,1,,187
2012-9-13,93,70,57,61,58,55,95,71,41,30.28,30.22,30.17,10,10,7,14,6,18,0.00,7,,254
2012-9-14,93,60,48,55,49,35,98,75,26,30.34,30.30,30.27,10,10,7,12,6,16,0.00,3,,10
2012-9-15,93,60,44,52,47,40,99,71,27,30.33,30.25,30.15,10,10,7,6,2,,0.00,0,,150
2012-9-16,93,61,44,53,46,42,98,68,28,30.15,30.08,30.00,10,10,10,12,3,,0.00,0,,194
2012-9-17,93,62,48,62,55,47,97,79,51,30.00,29.88,29.73,10,10,10,9,3,,0.00,3,,197
2012-9-18,93,52,42,61,46,33,98,74,36,30.03,29.86,29.72,10,10,4,22,10,33,0.00,6,,313
2012-9-19,93,52,34,42,37,33,99,58,25,30.12,30.03,29.92,10,10,10,20,6,26,0.00,1,,196
2012-9-20,93,60,44,48,40,34,81,48,26,29.93,29.90,29.87,10,10,10,20,11,28,0.00,1,,242
2012-9-21,93,55,41,50,43,33,99,72,26,29.95,29.88,29.79,10,10,1,12,5,21,0.00,3,,213
2012-9-22,93,47,39,52,42,33,99,81,47,30.15,29.96,29.78,10,7,0,20,6,34,0.00,5,,265
2012-9-23,93,46,33,41,35,31,98,70,36,30.25,30.21,30.15,10,10,10,15,6,23,0.00,1,,293
2012-9-24,93,50,32,37,31,24,99,55,18,30.24,30.12,29.95,10,10,10,17,6,26,0.00,0,,213
2012-9-25,72,61,50,62,49,36,98,65,49,29.97,29.90,29.86,10,10,4,14,6,20,0.00,6,,198
2012-9-26,93,63,55,63,57,48,99,81,56,30.15,29.99,29.87,10,7,2,13,5,,0.00,6,,312
2012-9-27,93,58,45,53,48,44,95,76,40,30.18,30.14,30.11,10,10,10,13,4,,0.00,4,,4
2012-9-28,93,57,45,55,49,44,98,81,49,30.14,30.11,30.08,10,8,0,12,2,16,0.00,3,,26
2012-9-29,73,56,38,54,40,36,99,68,28,30.12,30.04,29.96,10,6,0,17,2,17,0.00,2,,332
2012-9-30,93,50,33,51,41,33,99,71,32,29.96,29.93,29.90,10,8,0,14,3,18,0.00,1,,38